sensor_id;sensor_type;location;lat;lon;timestamp;P1;durP1;ratioP1;P2;durP2;ratioP2
49852;SDS011;35751;48.072;11.688;2023-02-18T00:00:58;2.15;;;1.40;;
49852;SDS011;35751;48.072;11.688;2023-02-18T00:03:25;3.92;;;1.85;;
49852;SDS011;35751;48.072;11.688;2023-02-18T00:05:52;3.25;;;2.13;;
49852;SDS011;35751;48.072;11.688;2023-02-18T00:08:18;3.95;;;1.85;;
49852;SDS011;35751;48.072;11.688;2023-02-18T00:10:44;5.78;;;1.67;;
49852;SDS011;35751;48.072;11.688;2023-02-18T00:13:10;2.85;;;1.75;;
49852;SDS011;35751;48.072;11.688;2023-02-18T00:15:36;4.53;;;1.83;;
49852;SDS011;35751;48.072;11.688;2023-02-18T00:18:03;3.20;;;1.70;;
49852;SDS011;35751;48.072;11.688;2023-02-18T00:20:29;2.13;;;1.50;;
49852;SDS011;35751;48.072;11.688;2023-02-18T00:22:54;4.05;;;1.55;;
49852;SDS011;35751;48.072;11.688;2023-02-18T00:25:20;2.10;;;1.55;;
49852;SDS011;35751;48.072;11.688;2023-02-18T00:27:46;5.82;;;2.58;;
49852;SDS011;35751;48.072;11.688;2023-02-18T00:30:11;1.60;;;1.30;;
49852;SDS011;35751;48.072;11.688;2023-02-18T00:32:38;2.10;;;1.40;;
49852;SDS011;35751;48.072;11.688;2023-02-18T00:35:03;2.25;;;1.60;;
49852;SDS011;35751;48.072;11.688;2023-02-18T00:37:30;1.70;;;1.50;;
49852;SDS011;35751;48.072;11.688;2023-02-18T00:39:56;3.08;;;1.70;;
49852;SDS011;35751;48.072;11.688;2023-02-18T00:42:22;1.52;;;1.27;;
49852;SDS011;35751;48.072;11.688;2023-02-18T00:44:48;2.53;;;1.63;;
49852;SDS011;35751;48.072;11.688;2023-02-18T00:47:13;2.85;;;1.52;;
49852;SDS011;35751;48.072;11.688;2023-02-18T00:49:39;1.73;;;1.20;;
49852;SDS011;35751;48.072;11.688;2023-02-18T00:52:04;3.17;;;1.65;;
49852;SDS011;35751;48.072;11.688;2023-02-18T00:54:30;5.65;;;1.50;;
49852;SDS011;35751;48.072;11.688;2023-02-18T00:56:58;2.65;;;1.80;;
49852;SDS011;35751;48.072;11.688;2023-02-18T00:59:25;4.60;;;1.58;;
49852;SDS011;35751;48.072;11.688;2023-02-18T01:01:50;2.67;;;1.45;;
49852;SDS011;35751;48.072;11.688;2023-02-18T01:04:15;2.95;;;1.40;;
49852;SDS011;35751;48.072;11.688;2023-02-18T01:06:41;3.58;;;1.45;;
49852;SDS011;35751;48.072;11.688;2023-02-18T01:09:07;1.45;;;1.27;;
49852;SDS011;35751;48.072;11.688;2023-02-18T01:11:33;1.88;;;1.58;;
49852;SDS011;35751;48.072;11.688;2023-02-18T01:13:59;2.85;;;1.38;;
49852;SDS011;35751;48.072;11.688;2023-02-18T01:16:24;3.20;;;1.65;;
49852;SDS011;35751;48.072;11.688;2023-02-18T01:18:51;2.65;;;1.65;;
49852;SDS011;35751;48.072;11.688;2023-02-18T01:21:16;2.63;;;1.73;;
49852;SDS011;35751;48.072;11.688;2023-02-18T01:23:42;3.33;;;1.50;;
49852;SDS011;35751;48.072;11.688;2023-02-18T01:26:08;1.98;;;1.60;;
49852;SDS011;35751;48.072;11.688;2023-02-18T01:28:34;5.32;;;2.75;;
49852;SDS011;35751;48.072;11.688;2023-02-18T01:31:04;2.40;;;1.63;;
49852;SDS011;35751;48.072;11.688;2023-02-18T01:33:33;2.65;;;1.80;;
49852;SDS011;35751;48.072;11.688;2023-02-18T01:35:59;3.67;;;2.10;;
49852;SDS011;35751;48.072;11.688;2023-02-18T01:38:25;3.25;;;1.58;;
49852;SDS011;35751;48.072;11.688;2023-02-18T01:40:52;2.58;;;1.70;;
49852;SDS011;35751;48.072;11.688;2023-02-18T01:43:18;2.47;;;1.75;;
49852;SDS011;35751;48.072;11.688;2023-02-18T01:48:27;4.57;;;1.65;;
49852;SDS011;35751;48.072;11.688;2023-02-18T01:53:36;2.53;;;1.65;;
49852;SDS011;35751;48.072;11.688;2023-02-18T01:56:05;2.88;;;1.40;;
49852;SDS011;35751;48.072;11.688;2023-02-18T01:58:33;2.15;;;1.45;;
49852;SDS011;35751;48.072;11.688;2023-02-18T02:00:59;2.08;;;1.63;;
49852;SDS011;35751;48.072;11.688;2023-02-18T02:03:24;2.10;;;1.65;;
49852;SDS011;35751;48.072;11.688;2023-02-18T02:05:50;4.03;;;2.15;;
49852;SDS011;35751;48.072;11.688;2023-02-18T02:08:16;3.45;;;1.67;;
49852;SDS011;35751;48.072;11.688;2023-02-18T02:10:45;8.00;;;2.53;;
49852;SDS011;35751;48.072;11.688;2023-02-18T02:16:33;2.28;;;1.52;;
49852;SDS011;35751;48.072;11.688;2023-02-18T02:19:28;2.47;;;1.63;;
49852;SDS011;35751;48.072;11.688;2023-02-18T02:38:59;1.88;;;1.00;;
49852;SDS011;35751;48.072;11.688;2023-02-18T02:41:38;2.08;;;1.20;;
49852;SDS011;35751;48.072;11.688;2023-02-18T02:47:01;1.23;;;0.90;;
49852;SDS011;35751;48.072;11.688;2023-02-18T02:49:36;1.55;;;1.10;;
49852;SDS011;35751;48.072;11.688;2023-02-18T02:52:18;1.73;;;1.40;;
49852;SDS011;35751;48.072;11.688;2023-02-18T02:54:47;1.88;;;1.15;;
49852;SDS011;35751;48.072;11.688;2023-02-18T02:57:58;1.45;;;1.08;;
49852;SDS011;35751;48.072;11.688;2023-02-18T02:59:59;1.27;;;1.02;;
49852;SDS011;35751;48.072;11.688;2023-02-18T03:02:30;1.73;;;1.35;;
49852;SDS011;35751;48.072;11.688;2023-02-18T03:16:25;1.60;;;1.00;;
49852;SDS011;35751;48.072;11.688;2023-02-18T03:18:56;1.70;;;1.13;;
49852;SDS011;35751;48.072;11.688;2023-02-18T03:21:31;2.10;;;1.20;;
49852;SDS011;35751;48.072;11.688;2023-02-18T03:26:33;3.10;;;1.02;;
49852;SDS011;35751;48.072;11.688;2023-02-18T03:29:02;1.38;;;1.08;;
49852;SDS011;35751;48.072;11.688;2023-02-18T03:31:28;2.13;;;1.13;;
49852;SDS011;35751;48.072;11.688;2023-02-18T03:33:56;2.25;;;1.38;;
49852;SDS011;35751;48.072;11.688;2023-02-18T03:36:30;0.85;;;0.85;;
49852;SDS011;35751;48.072;11.688;2023-02-18T03:39:01;0.95;;;0.85;;
49852;SDS011;35751;48.072;11.688;2023-02-18T03:41:28;3.17;;;1.00;;
49852;SDS011;35751;48.072;11.688;2023-02-18T03:43:58;1.55;;;1.08;;
49852;SDS011;35751;48.072;11.688;2023-02-18T03:46:26;1.60;;;1.08;;
49852;SDS011;35751;48.072;11.688;2023-02-18T03:48:52;1.83;;;1.50;;
49852;SDS011;35751;48.072;11.688;2023-02-18T03:51:18;1.23;;;1.10;;
49852;SDS011;35751;48.072;11.688;2023-02-18T03:53:44;4.10;;;1.50;;
49852;SDS011;35751;48.072;11.688;2023-02-18T03:56:09;1.75;;;1.00;;
49852;SDS011;35751;48.072;11.688;2023-02-18T03:58:35;1.25;;;1.02;;
49852;SDS011;35751;48.072;11.688;2023-02-18T04:01:00;2.38;;;1.70;;
49852;SDS011;35751;48.072;11.688;2023-02-18T04:03:26;2.03;;;1.38;;
49852;SDS011;35751;48.072;11.688;2023-02-18T04:05:51;1.55;;;1.30;;
49852;SDS011;35751;48.072;11.688;2023-02-18T04:08:17;2.05;;;1.30;;
49852;SDS011;35751;48.072;11.688;2023-02-18T04:10:42;2.47;;;1.15;;
49852;SDS011;35751;48.072;11.688;2023-02-18T04:13:08;2.17;;;1.10;;
49852;SDS011;35751;48.072;11.688;2023-02-18T04:15:33;3.10;;;1.42;;
49852;SDS011;35751;48.072;11.688;2023-02-18T04:17:59;4.10;;;1.60;;
49852;SDS011;35751;48.072;11.688;2023-02-18T04:20:24;1.77;;;1.35;;
49852;SDS011;35751;48.072;11.688;2023-02-18T04:22:49;2.40;;;1.55;;
49852;SDS011;35751;48.072;11.688;2023-02-18T04:25:15;5.10;;;1.70;;
49852;SDS011;35751;48.072;11.688;2023-02-18T04:27:40;1.83;;;1.30;;
49852;SDS011;35751;48.072;11.688;2023-02-18T04:30:06;1.50;;;1.33;;
49852;SDS011;35751;48.072;11.688;2023-02-18T04:32:32;1.80;;;1.40;;
49852;SDS011;35751;48.072;11.688;2023-02-18T04:34:57;3.88;;;1.40;;
49852;SDS011;35751;48.072;11.688;2023-02-18T04:37:22;1.48;;;1.25;;
49852;SDS011;35751;48.072;11.688;2023-02-18T04:39:48;2.35;;;1.50;;
49852;SDS011;35751;48.072;11.688;2023-02-18T04:42:13;1.55;;;1.20;;
49852;SDS011;35751;48.072;11.688;2023-02-18T04:44:39;1.52;;;1.23;;
49852;SDS011;35751;48.072;11.688;2023-02-18T04:47:04;1.52;;;1.10;;
49852;SDS011;35751;48.072;11.688;2023-02-18T04:49:30;1.42;;;1.10;;
49852;SDS011;35751;48.072;11.688;2023-02-18T04:51:56;2.60;;;2.33;;
49852;SDS011;35751;48.072;11.688;2023-02-18T04:54:22;1.98;;;1.30;;
49852;SDS011;35751;48.072;11.688;2023-02-18T04:56:47;2.03;;;1.27;;
49852;SDS011;35751;48.072;11.688;2023-02-18T04:59:12;4.78;;;1.23;;
49852;SDS011;35751;48.072;11.688;2023-02-18T05:01:38;2.40;;;1.50;;
49852;SDS011;35751;48.072;11.688;2023-02-18T05:04:03;1.10;;;1.08;;
49852;SDS011;35751;48.072;11.688;2023-02-18T05:06:29;3.22;;;1.45;;
49852;SDS011;35751;48.072;11.688;2023-02-18T05:08:54;1.88;;;1.48;;
49852;SDS011;35751;48.072;11.688;2023-02-18T05:11:19;2.63;;;1.90;;
49852;SDS011;35751;48.072;11.688;2023-02-18T05:13:45;1.52;;;1.15;;
49852;SDS011;35751;48.072;11.688;2023-02-18T05:16:10;1.20;;;0.80;;
49852;SDS011;35751;48.072;11.688;2023-02-18T05:18:35;2.28;;;1.40;;
49852;SDS011;35751;48.072;11.688;2023-02-18T05:21:01;1.83;;;1.30;;
49852;SDS011;35751;48.072;11.688;2023-02-18T05:23:27;1.70;;;1.20;;
49852;SDS011;35751;48.072;11.688;2023-02-18T05:25:53;1.65;;;1.23;;
49852;SDS011;35751;48.072;11.688;2023-02-18T05:28:19;1.27;;;1.15;;
49852;SDS011;35751;48.072;11.688;2023-02-18T05:30:44;1.30;;;0.80;;
49852;SDS011;35751;48.072;11.688;2023-02-18T05:33:10;1.70;;;0.57;;
49852;SDS011;35751;48.072;11.688;2023-02-18T05:35:35;0.88;;;0.68;;
49852;SDS011;35751;48.072;11.688;2023-02-18T05:38:00;0.95;;;0.65;;
49852;SDS011;35751;48.072;11.688;2023-02-18T05:40:26;0.70;;;0.70;;
49852;SDS011;35751;48.072;11.688;2023-02-18T05:42:51;0.60;;;0.60;;
49852;SDS011;35751;48.072;11.688;2023-02-18T05:45:16;1.95;;;0.90;;
49852;SDS011;35751;48.072;11.688;2023-02-18T05:47:42;1.45;;;0.75;;
49852;SDS011;35751;48.072;11.688;2023-02-18T05:50:07;0.77;;;0.77;;
49852;SDS011;35751;48.072;11.688;2023-02-18T05:52:33;1.27;;;0.80;;
49852;SDS011;35751;48.072;11.688;2023-02-18T05:54:58;2.15;;;1.13;;
49852;SDS011;35751;48.072;11.688;2023-02-18T05:57:24;1.65;;;1.00;;
49852;SDS011;35751;48.072;11.688;2023-02-18T05:59:50;1.00;;;0.70;;
49852;SDS011;35751;48.072;11.688;2023-02-18T06:02:16;1.10;;;0.88;;
49852;SDS011;35751;48.072;11.688;2023-02-18T06:04:41;1.45;;;0.80;;
49852;SDS011;35751;48.072;11.688;2023-02-18T06:07:06;1.08;;;0.85;;
49852;SDS011;35751;48.072;11.688;2023-02-18T06:09:32;3.55;;;1.10;;
49852;SDS011;35751;48.072;11.688;2023-02-18T06:11:57;1.33;;;1.05;;
49852;SDS011;35751;48.072;11.688;2023-02-18T06:14:23;2.72;;;1.10;;
49852;SDS011;35751;48.072;11.688;2023-02-18T06:16:49;1.15;;;0.98;;
49852;SDS011;35751;48.072;11.688;2023-02-18T06:19:14;1.20;;;0.90;;
49852;SDS011;35751;48.072;11.688;2023-02-18T06:21:40;1.20;;;0.70;;
49852;SDS011;35751;48.072;11.688;2023-02-18T06:24:05;1.83;;;1.48;;
49852;SDS011;35751;48.072;11.688;2023-02-18T06:26:31;1.35;;;1.10;;
49852;SDS011;35751;48.072;11.688;2023-02-18T06:28:57;1.52;;;1.00;;
49852;SDS011;35751;48.072;11.688;2023-02-18T06:31:22;0.98;;;0.80;;
49852;SDS011;35751;48.072;11.688;2023-02-18T06:33:48;1.13;;;1.00;;
49852;SDS011;35751;48.072;11.688;2023-02-18T06:36:14;0.70;;;0.70;;
49852;SDS011;35751;48.072;11.688;2023-02-18T06:38:40;1.15;;;0.85;;
49852;SDS011;35751;48.072;11.688;2023-02-18T06:41:06;0.90;;;0.70;;
49852;SDS011;35751;48.072;11.688;2023-02-18T06:43:32;0.70;;;0.50;;
49852;SDS011;35751;48.072;11.688;2023-02-18T06:45:58;0.73;;;0.73;;
49852;SDS011;35751;48.072;11.688;2023-02-18T06:48:23;0.95;;;0.90;;
49852;SDS011;35751;48.072;11.688;2023-02-18T06:50:49;1.10;;;0.80;;
49852;SDS011;35751;48.072;11.688;2023-02-18T06:53:14;0.70;;;0.68;;
49852;SDS011;35751;48.072;11.688;2023-02-18T06:55:42;1.02;;;0.80;;
49852;SDS011;35751;48.072;11.688;2023-02-18T06:58:09;0.90;;;0.65;;
49852;SDS011;35751;48.072;11.688;2023-02-18T07:00:36;0.70;;;0.70;;
49852;SDS011;35751;48.072;11.688;2023-02-18T07:03:03;0.68;;;0.63;;
49852;SDS011;35751;48.072;11.688;2023-02-18T07:05:29;1.20;;;1.10;;
49852;SDS011;35751;48.072;11.688;2023-02-18T07:07:55;1.05;;;0.77;;
49852;SDS011;35751;48.072;11.688;2023-02-18T07:10:21;0.70;;;0.68;;
49852;SDS011;35751;48.072;11.688;2023-02-18T07:12:47;0.88;;;0.65;;
49852;SDS011;35751;48.072;11.688;2023-02-18T07:15:13;0.77;;;0.77;;
49852;SDS011;35751;48.072;11.688;2023-02-18T07:17:39;0.82;;;0.50;;
49852;SDS011;35751;48.072;11.688;2023-02-18T07:20:06;0.60;;;0.60;;
49852;SDS011;35751;48.072;11.688;2023-02-18T07:22:32;1.63;;;0.80;;
49852;SDS011;35751;48.072;11.688;2023-02-18T07:24:58;0.50;;;0.50;;
49852;SDS011;35751;48.072;11.688;2023-02-18T07:27:23;1.70;;;0.80;;
49852;SDS011;35751;48.072;11.688;2023-02-18T07:29:50;1.30;;;0.70;;
49852;SDS011;35751;48.072;11.688;2023-02-18T07:32:16;0.40;;;0.40;;
49852;SDS011;35751;48.072;11.688;2023-02-18T07:34:45;0.55;;;0.50;;
49852;SDS011;35751;48.072;11.688;2023-02-18T07:37:10;0.90;;;0.60;;
49852;SDS011;35751;48.072;11.688;2023-02-18T07:39:40;0.40;;;0.40;;
49852;SDS011;35751;48.072;11.688;2023-02-18T07:42:06;0.85;;;0.70;;
49852;SDS011;35751;48.072;11.688;2023-02-18T07:44:31;0.90;;;0.77;;
49852;SDS011;35751;48.072;11.688;2023-02-18T07:46:58;0.47;;;0.47;;
49852;SDS011;35751;48.072;11.688;2023-02-18T07:49:24;2.92;;;0.88;;
49852;SDS011;35751;48.072;11.688;2023-02-18T07:51:50;0.75;;;0.68;;
49852;SDS011;35751;48.072;11.688;2023-02-18T07:54:15;0.50;;;0.50;;
49852;SDS011;35751;48.072;11.688;2023-02-18T07:56:43;1.65;;;0.47;;
49852;SDS011;35751;48.072;11.688;2023-02-18T07:59:09;0.55;;;0.55;;
49852;SDS011;35751;48.072;11.688;2023-02-18T08:01:35;0.77;;;0.63;;
49852;SDS011;35751;48.072;11.688;2023-02-18T08:04:01;0.50;;;0.50;;
49852;SDS011;35751;48.072;11.688;2023-02-18T08:06:33;0.50;;;0.50;;
49852;SDS011;35751;48.072;11.688;2023-02-18T08:09:00;0.50;;;0.50;;
49852;SDS011;35751;48.072;11.688;2023-02-18T08:11:26;0.57;;;0.57;;
49852;SDS011;35751;48.072;11.688;2023-02-18T08:13:52;0.68;;;0.60;;
49852;SDS011;35751;48.072;11.688;2023-02-18T08:16:19;0.50;;;0.50;;
49852;SDS011;35751;48.072;11.688;2023-02-18T08:18:46;0.52;;;0.52;;
49852;SDS011;35751;48.072;11.688;2023-02-18T08:21:14;1.00;;;0.65;;
49852;SDS011;35751;48.072;11.688;2023-02-18T08:23:40;2.78;;;0.63;;
49852;SDS011;35751;48.072;11.688;2023-02-18T08:26:06;0.60;;;0.60;;
49852;SDS011;35751;48.072;11.688;2023-02-18T08:28:33;0.60;;;0.60;;
49852;SDS011;35751;48.072;11.688;2023-02-18T08:30:58;0.47;;;0.45;;
49852;SDS011;35751;48.072;11.688;2023-02-18T08:33:24;0.60;;;0.50;;
49852;SDS011;35751;48.072;11.688;2023-02-18T08:35:51;0.77;;;0.50;;
49852;SDS011;35751;48.072;11.688;2023-02-18T08:38:18;1.33;;;1.23;;
49852;SDS011;35751;48.072;11.688;2023-02-18T08:40:44;0.65;;;0.60;;
49852;SDS011;35751;48.072;11.688;2023-02-18T08:43:10;1.35;;;0.57;;
49852;SDS011;35751;48.072;11.688;2023-02-18T08:45:37;0.50;;;0.50;;
49852;SDS011;35751;48.072;11.688;2023-02-18T08:48:03;0.60;;;0.52;;
49852;SDS011;35751;48.072;11.688;2023-02-18T08:50:30;0.90;;;0.70;;
49852;SDS011;35751;48.072;11.688;2023-02-18T08:52:55;0.73;;;0.60;;
49852;SDS011;35751;48.072;11.688;2023-02-18T08:55:24;0.47;;;0.47;;
49852;SDS011;35751;48.072;11.688;2023-02-18T08:57:51;1.00;;;0.65;;
49852;SDS011;35751;48.072;11.688;2023-02-18T09:00:17;2.42;;;0.85;;
49852;SDS011;35751;48.072;11.688;2023-02-18T09:02:44;0.77;;;0.63;;
49852;SDS011;35751;48.072;11.688;2023-02-18T09:05:12;0.80;;;0.73;;
49852;SDS011;35751;48.072;11.688;2023-02-18T09:07:38;1.08;;;0.60;;
49852;SDS011;35751;48.072;11.688;2023-02-18T09:10:05;2.10;;;1.95;;
49852;SDS011;35751;48.072;11.688;2023-02-18T09:12:31;0.63;;;0.63;;
49852;SDS011;35751;48.072;11.688;2023-02-18T09:14:57;1.00;;;0.80;;
49852;SDS011;35751;48.072;11.688;2023-02-18T09:17:26;1.10;;;0.85;;
49852;SDS011;35751;48.072;11.688;2023-02-18T09:19:52;2.58;;;0.68;;
49852;SDS011;35751;48.072;11.688;2023-02-18T09:22:18;1.38;;;0.77;;
49852;SDS011;35751;48.072;11.688;2023-02-18T09:24:44;1.80;;;0.80;;
49852;SDS011;35751;48.072;11.688;2023-02-18T09:27:09;0.98;;;0.77;;
49852;SDS011;35751;48.072;11.688;2023-02-18T09:29:37;1.33;;;0.98;;
49852;SDS011;35751;48.072;11.688;2023-02-18T09:32:04;3.10;;;0.90;;
49852;SDS011;35751;48.072;11.688;2023-02-18T09:34:31;1.90;;;0.90;;
49852;SDS011;35751;48.072;11.688;2023-02-18T09:36:57;0.93;;;0.80;;
49852;SDS011;35751;48.072;11.688;2023-02-18T09:39:22;0.60;;;0.60;;
49852;SDS011;35751;48.072;11.688;2023-02-18T09:42:01;0.60;;;0.60;;
49852;SDS011;35751;48.072;11.688;2023-02-18T09:44:33;2.63;;;0.98;;
49852;SDS011;35751;48.072;11.688;2023-02-18T09:47:17;1.63;;;0.80;;
49852;SDS011;35751;48.072;11.688;2023-02-18T09:49:48;1.25;;;0.90;;
49852;SDS011;35751;48.072;11.688;2023-02-18T09:52:17;0.80;;;0.65;;
49852;SDS011;35751;48.072;11.688;2023-02-18T09:54:48;2.83;;;1.00;;
49852;SDS011;35751;48.072;11.688;2023-02-18T10:00:12;0.80;;;0.60;;
49852;SDS011;35751;48.072;11.688;2023-02-18T10:02:40;4.35;;;0.88;;
49852;SDS011;35751;48.072;11.688;2023-02-18T10:05:08;1.02;;;0.90;;
49852;SDS011;35751;48.072;11.688;2023-02-18T10:07:37;3.60;;;1.80;;
49852;SDS011;35751;48.072;11.688;2023-02-18T10:10:21;0.60;;;0.60;;
49852;SDS011;35751;48.072;11.688;2023-02-18T10:12:49;2.85;;;1.10;;
49852;SDS011;35751;48.072;11.688;2023-02-18T10:15:21;2.53;;;0.60;;
49852;SDS011;35751;48.072;11.688;2023-02-18T10:17:49;3.15;;;1.13;;
49852;SDS011;35751;48.072;11.688;2023-02-18T10:20:16;1.33;;;0.73;;
49852;SDS011;35751;48.072;11.688;2023-02-18T10:22:45;0.60;;;0.60;;
49852;SDS011;35751;48.072;11.688;2023-02-18T10:25:14;0.95;;;0.60;;
49852;SDS011;35751;48.072;11.688;2023-02-18T10:27:44;0.68;;;0.60;;
49852;SDS011;35751;48.072;11.688;2023-02-18T10:32:39;0.52;;;0.52;;
49852;SDS011;35751;48.072;11.688;2023-02-18T10:37:48;1.48;;;1.17;;
49852;SDS011;35751;48.072;11.688;2023-02-18T10:45:57;0.63;;;0.52;;
49852;SDS011;35751;48.072;11.688;2023-02-18T10:48:40;0.90;;;0.60;;
49852;SDS011;35751;48.072;11.688;2023-02-18T10:51:18;2.15;;;0.55;;
49852;SDS011;35751;48.072;11.688;2023-02-18T10:53:47;1.63;;;0.60;;
49852;SDS011;35751;48.072;11.688;2023-02-18T10:56:33;2.88;;;0.70;;
49852;SDS011;35751;48.072;11.688;2023-02-18T11:01:54;1.95;;;0.90;;
49852;SDS011;35751;48.072;11.688;2023-02-18T11:04:23;1.05;;;0.70;;
49852;SDS011;35751;48.072;11.688;2023-02-18T11:06:51;0.55;;;0.50;;
49852;SDS011;35751;48.072;11.688;2023-02-18T11:09:25;1.02;;;0.77;;
49852;SDS011;35751;48.072;11.688;2023-02-18T11:11:59;1.63;;;1.00;;
49852;SDS011;35751;48.072;11.688;2023-02-18T11:20:19;1.02;;;0.70;;
49852;SDS011;35751;48.072;11.688;2023-02-18T11:23:19;1.13;;;0.70;;
49852;SDS011;35751;48.072;11.688;2023-02-18T11:26:04;2.85;;;0.90;;
49852;SDS011;35751;48.072;11.688;2023-02-18T11:28:45;1.70;;;0.60;;
49852;SDS011;35751;48.072;11.688;2023-02-18T11:31:23;1.23;;;0.73;;
49852;SDS011;35751;48.072;11.688;2023-02-18T11:33:54;2.55;;;0.60;;
49852;SDS011;35751;48.072;11.688;2023-02-18T11:36:23;2.75;;;0.60;;
49852;SDS011;35751;48.072;11.688;2023-02-18T11:38:56;2.22;;;0.65;;
49852;SDS011;35751;48.072;11.688;2023-02-18T11:41:45;1.10;;;0.80;;
49852;SDS011;35751;48.072;11.688;2023-02-18T11:44:26;0.98;;;0.68;;
49852;SDS011;35751;48.072;11.688;2023-02-18T11:49:38;0.75;;;0.75;;
49852;SDS011;35751;48.072;11.688;2023-02-18T11:54:40;0.93;;;0.70;;
49852;SDS011;35751;48.072;11.688;2023-02-18T11:57:09;1.73;;;1.20;;
49852;SDS011;35751;48.072;11.688;2023-02-18T11:59:37;0.85;;;0.65;;
49852;SDS011;35751;48.072;11.688;2023-02-18T12:10:09;2.15;;;1.80;;
49852;SDS011;35751;48.072;11.688;2023-02-18T12:13:06;0.50;;;0.50;;
49852;SDS011;35751;48.072;11.688;2023-02-18T12:23:35;1.58;;;0.70;;
49852;SDS011;35751;48.072;11.688;2023-02-18T12:39:02;0.60;;;0.60;;
49852;SDS011;35751;48.072;11.688;2023-02-18T12:44:35;1.92;;;1.00;;
49852;SDS011;35751;48.072;11.688;2023-02-18T12:52:45;2.97;;;0.90;;
49852;SDS011;35751;48.072;11.688;2023-02-18T13:07:23;0.82;;;0.80;;
49852;SDS011;35751;48.072;11.688;2023-02-18T13:10:18;0.95;;;0.90;;
49852;SDS011;35751;48.072;11.688;2023-02-18T13:12:54;0.73;;;0.68;;
49852;SDS011;35751;48.072;11.688;2023-02-18T13:18:41;2.38;;;0.80;;
49852;SDS011;35751;48.072;11.688;2023-02-18T13:21:11;0.63;;;0.63;;
49852;SDS011;35751;48.072;11.688;2023-02-18T13:26:13;1.73;;;0.60;;
49852;SDS011;35751;48.072;11.688;2023-02-18T13:31:16;1.80;;;0.60;;
49852;SDS011;35751;48.072;11.688;2023-02-18T13:34:19;1.23;;;0.73;;
49852;SDS011;35751;48.072;11.688;2023-02-18T13:39:30;1.30;;;0.88;;
49852;SDS011;35751;48.072;11.688;2023-02-18T13:50:15;0.85;;;0.85;;
49852;SDS011;35751;48.072;11.688;2023-02-18T13:52:47;0.80;;;0.80;;
49852;SDS011;35751;48.072;11.688;2023-02-18T13:55:38;2.45;;;0.65;;
49852;SDS011;35751;48.072;11.688;2023-02-18T13:58:15;2.45;;;0.90;;
49852;SDS011;35751;48.072;11.688;2023-02-18T14:00:45;1.45;;;1.20;;
49852;SDS011;35751;48.072;11.688;2023-02-18T14:03:27;2.17;;;1.27;;
49852;SDS011;35751;48.072;11.688;2023-02-18T14:06:00;1.52;;;0.90;;
49852;SDS011;35751;48.072;11.688;2023-02-18T14:16:05;2.40;;;0.90;;
49852;SDS011;35751;48.072;11.688;2023-02-18T14:50:25;1.55;;;1.05;;
49852;SDS011;35751;48.072;11.688;2023-02-18T14:52:56;0.77;;;0.77;;
49852;SDS011;35751;48.072;11.688;2023-02-18T14:55:29;1.15;;;0.70;;
49852;SDS011;35751;48.072;11.688;2023-02-18T14:58:00;1.45;;;0.75;;
49852;SDS011;35751;48.072;11.688;2023-02-18T15:00:31;3.13;;;1.08;;
49852;SDS011;35751;48.072;11.688;2023-02-18T15:02:59;2.72;;;1.30;;
49852;SDS011;35751;48.072;11.688;2023-02-18T15:05:28;1.20;;;0.93;;
49852;SDS011;35751;48.072;11.688;2023-02-18T15:10:24;1.33;;;0.80;;
49852;SDS011;35751;48.072;11.688;2023-02-18T15:12:52;1.15;;;0.82;;
49852;SDS011;35751;48.072;11.688;2023-02-18T15:15:21;1.20;;;1.02;;
49852;SDS011;35751;48.072;11.688;2023-02-18T15:17:47;1.92;;;1.20;;
49852;SDS011;35751;48.072;11.688;2023-02-18T15:20:13;1.48;;;0.95;;
49852;SDS011;35751;48.072;11.688;2023-02-18T15:22:40;3.70;;;1.10;;
49852;SDS011;35751;48.072;11.688;2023-02-18T15:25:08;0.80;;;0.80;;
49852;SDS011;35751;48.072;11.688;2023-02-18T15:27:37;1.08;;;0.75;;
49852;SDS011;35751;48.072;11.688;2023-02-18T15:30:16;1.05;;;0.88;;
49852;SDS011;35751;48.072;11.688;2023-02-18T15:32:57;1.85;;;0.70;;
49852;SDS011;35751;48.072;11.688;2023-02-18T15:35:27;0.65;;;0.65;;
49852;SDS011;35751;48.072;11.688;2023-02-18T15:37:56;2.75;;;0.80;;
49852;SDS011;35751;48.072;11.688;2023-02-18T15:40:23;3.28;;;0.90;;
49852;SDS011;35751;48.072;11.688;2023-02-18T15:42:52;1.23;;;0.90;;
49852;SDS011;35751;48.072;11.688;2023-02-18T15:45:22;1.73;;;1.05;;
49852;SDS011;35751;48.072;11.688;2023-02-18T15:47:51;0.68;;;0.68;;
49852;SDS011;35751;48.072;11.688;2023-02-18T15:50:19;1.30;;;0.70;;
49852;SDS011;35751;48.072;11.688;2023-02-18T15:52:46;2.67;;;0.85;;
49852;SDS011;35751;48.072;11.688;2023-02-18T15:55:14;1.55;;;0.73;;
49852;SDS011;35751;48.072;11.688;2023-02-18T15:57:47;1.35;;;0.93;;
49852;SDS011;35751;48.072;11.688;2023-02-18T16:00:49;1.88;;;1.05;;
49852;SDS011;35751;48.072;11.688;2023-02-18T16:06:15;2.58;;;0.90;;
49852;SDS011;35751;48.072;11.688;2023-02-18T16:11:36;0.68;;;0.65;;
49852;SDS011;35751;48.072;11.688;2023-02-18T16:14:03;1.08;;;0.63;;
49852;SDS011;35751;48.072;11.688;2023-02-18T16:16:33;0.75;;;0.70;;
49852;SDS011;35751;48.072;11.688;2023-02-18T16:19:01;0.77;;;0.77;;
49852;SDS011;35751;48.072;11.688;2023-02-18T16:24:02;1.13;;;1.13;;
49852;SDS011;35751;48.072;11.688;2023-02-18T16:28:59;0.80;;;0.73;;
49852;SDS011;35751;48.072;11.688;2023-02-18T16:31:27;0.90;;;0.80;;
49852;SDS011;35751;48.072;11.688;2023-02-18T16:33:52;0.70;;;0.63;;
49852;SDS011;35751;48.072;11.688;2023-02-18T16:36:18;1.85;;;0.80;;
49852;SDS011;35751;48.072;11.688;2023-02-18T16:38:45;3.50;;;1.30;;
49852;SDS011;35751;48.072;11.688;2023-02-18T16:41:12;1.50;;;1.40;;
49852;SDS011;35751;48.072;11.688;2023-02-18T16:43:38;1.35;;;1.25;;
49852;SDS011;35751;48.072;11.688;2023-02-18T16:46:05;1.63;;;1.30;;
49852;SDS011;35751;48.072;11.688;2023-02-18T16:48:38;1.27;;;1.17;;
49852;SDS011;35751;48.072;11.688;2023-02-18T16:51:12;1.60;;;0.95;;
49852;SDS011;35751;48.072;11.688;2023-02-18T16:53:39;1.45;;;1.00;;
49852;SDS011;35751;48.072;11.688;2023-02-18T16:56:10;2.80;;;1.55;;
49852;SDS011;35751;48.072;11.688;2023-02-18T16:58:38;2.13;;;1.33;;
49852;SDS011;35751;48.072;11.688;2023-02-18T17:01:03;1.40;;;1.10;;
49852;SDS011;35751;48.072;11.688;2023-02-18T17:03:29;1.50;;;1.40;;
49852;SDS011;35751;48.072;11.688;2023-02-18T17:05:55;1.05;;;0.90;;
49852;SDS011;35751;48.072;11.688;2023-02-18T17:08:22;1.08;;;0.70;;
49852;SDS011;35751;48.072;11.688;2023-02-18T17:10:50;0.90;;;0.80;;
49852;SDS011;35751;48.072;11.688;2023-02-18T17:13:24;0.55;;;0.52;;
49852;SDS011;35751;48.072;11.688;2023-02-18T17:15:52;1.48;;;0.77;;
49852;SDS011;35751;48.072;11.688;2023-02-18T17:18:18;1.27;;;0.65;;
49852;SDS011;35751;48.072;11.688;2023-02-18T17:20:44;0.98;;;0.88;;
49852;SDS011;35751;48.072;11.688;2023-02-18T17:23:20;0.98;;;0.85;;
49852;SDS011;35751;48.072;11.688;2023-02-18T17:25:47;0.98;;;0.95;;
49852;SDS011;35751;48.072;11.688;2023-02-18T17:28:13;0.90;;;0.80;;
49852;SDS011;35751;48.072;11.688;2023-02-18T17:30:42;1.23;;;1.05;;
49852;SDS011;35751;48.072;11.688;2023-02-18T17:33:10;0.82;;;0.80;;
49852;SDS011;35751;48.072;11.688;2023-02-18T17:35:39;1.90;;;1.10;;
49852;SDS011;35751;48.072;11.688;2023-02-18T17:38:08;0.98;;;0.80;;
49852;SDS011;35751;48.072;11.688;2023-02-18T17:40:35;1.23;;;1.13;;
49852;SDS011;35751;48.072;11.688;2023-02-18T17:43:00;0.82;;;0.70;;
49852;SDS011;35751;48.072;11.688;2023-02-18T17:45:27;1.35;;;0.98;;
49852;SDS011;35751;48.072;11.688;2023-02-18T17:48:04;0.90;;;0.80;;
49852;SDS011;35751;48.072;11.688;2023-02-18T17:50:29;0.98;;;0.98;;
49852;SDS011;35751;48.072;11.688;2023-02-18T17:52:55;1.20;;;0.80;;